Meath Environmental Platform

Observations for Trim Market St

Time AQI Temp °C Hum % Pres Pa CO μg/m³ H₂S μg/m³ NO μg/m³ NO₂ μg/m³ O₃ μg/m³ SO₂ μg/m³ PM1 μg/m³ PM2.5 μg/m³ PM10 μg/m³
Sunday 16 August 2026
04:23 2 15.3 68 57,040 0.22 0 1.84 8.94 49.03 0 2.14 4.14 6.89
04:22 2 15.3 68 57,054 0.23 0 1.96 5.73 51.53 0 2.14 3.65 6.25
04:21 2 15.3 68 57,053 0.23 0 2 7.08 47.93 0 1.43 4.14 6.25
04:20 2 15.3 68 57,060 0.23 0 1.87 6.07 50.11 0 2.14 4.63 8.17
04:19 2 15.3 68 57,064 0.23 0 1.76 6.45 51.87 0 2.14 3.65 5.61
04:18 2 15.3 68 57,070 0.22 0 1.69 7.07 46.47 0 2.14 4.14 6.25
04:17 2 15.3 68 57,075 0.23 0 1.91 5.53 54.81 0 1.43 3.65 5.61
04:09 2 15.4 67 57,129 0.22 0 1.97 7.49 52.38 0 2.14 4.16 6.25
04:08 2 15.4 67 57,137 0.24 0 1.93 6.51 50.97 0 2.14 4.65 6.89
04:07 2 15.4 67 57,149 0.23 0 1.71 7.49 51.55 0 3.56 5.63 8.81
04:06 2 15.4 67 57,160 0.23 0 1.74 7 47.72 0 2.85 4.65 6.89
04:00 2 15.4 67 57,195 0.24 0 1.74 5.46 51.02 0 2.14 3.68 5.6
03:59 2 15.4 67 57,199 0.25 0 1.75 7.21 47.15 0 2.85 4.66 7.53
03:58 2 15.5 67 57,205 0.24 0 2 6.06 50.84 0 2.14 3.68 5.6
03:57 2 15.5 67 57,205 0.24 0 2.08 8.66 56.73 0 1.43 3.68 6.24
03:56 2 15.5 67 57,206 0.24 0 2.06 7.81 57.34 0 2.14 4.66 7.53
03:53 2 15.5 67 57,223 0.25 0 1.69 6.69 48.44 0 2.85 4.17 6.89
03:52 2 15.5 67 57,229 0.25 0 1.7 7.16 55.42 0 2.85 4.67 6.89
03:51 2 15.5 67 57,235 0.25 0 1.68 7.81 47.16 0 2.85 4.17 6.24
03:50 2 15.5 67 57,241 0.24 0 1.61 6.68 47.9 0 2.85 5.16 8.17